Time;durP1;ratioP1;P1;durP2;ratioP2;P2;SDS_P1;SDS_P2;PMS_P1;PMS_P2;Temp;Humidity;BMP_temperature;BMP_pressure;BME280_temperature;BME280_humidity;BME280_pressure;Samples;Min_cycle;Max_cycle;Signal;HPM_P1;HPM_P2
2023/03/31 06:11:41;;;;;;;20.50;6.30;;;;;;;10.36;100.00;95210.53;5094458;27;20486;-69
2023/03/31 06:14:07;;;;;;;20.35;6.70;;;;;;;10.09;100.00;95205.38;5092912;28;20210;-68
2023/03/31 06:16:34;;;;;;;17.48;7.55;;;;;;;10.20;100.00;95225.06;5094553;28;20207;-67
2023/03/31 06:19:00;;;;;;;9.50;5.53;;;;;;;10.27;100.00;95197.72;5094739;28;20202;-68
2023/03/31 06:21:27;;;;;;;16.07;5.77;;;;;;;10.30;100.00;95207.06;5093866;28;21006;-68
2023/03/31 06:23:54;;;;;;;18.73;6.00;;;;;;;10.17;100.00;95212.28;5093703;28;20728;-68
2023/03/31 06:26:22;;;;;;;18.67;6.17;;;;;;;10.24;100.00;95206.03;5094332;28;20203;-68
2023/03/31 06:28:50;;;;;;;11.73;6.03;;;;;;;10.30;100.00;95202.63;5093766;28;20199;-68
2023/03/31 06:31:18;;;;;;;14.10;5.97;;;;;;;10.19;100.00;95216.34;5092971;28;20632;-68
2023/03/31 06:33:45;;;;;;;15.57;6.60;;;;;;;10.07;100.00;95202.16;5093941;28;20221;-67
2023/03/31 06:36:14;;;;;;;27.00;6.47;;;;;;;10.19;100.00;95183.97;5094460;28;20211;-68
2023/03/31 06:38:41;;;;;;;14.70;6.00;;;;;;;10.17;100.00;95186.81;5093438;28;20207;-69
2023/03/31 06:41:11;;;;;;;12.27;5.70;;;;;;;10.15;100.00;95180.13;5093705;28;20206;-68
2023/03/31 06:43:37;;;;;;;13.20;6.30;;;;;;;10.14;100.00;95175.84;5093645;28;20315;-68
2023/03/31 06:46:06;;;;;;;20.03;9.27;;;;;;;10.24;100.00;95181.53;5093492;28;20306;-68
2023/03/31 06:48:33;;;;;;;20.50;8.60;;;;;;;10.18;100.00;95185.75;5094249;28;20207;-68
2023/03/31 06:51:01;;;;;;;18.93;7.30;;;;;;;10.15;100.00;95196.69;5093634;28;20571;-68
2023/03/31 06:53:28;;;;;;;19.17;8.30;;;;;;;10.17;100.00;95178.91;5092928;28;20230;-68
2023/03/31 06:55:55;;;;;;;18.60;7.77;;;;;;;10.25;100.00;95168.19;5092806;28;20210;-67
2023/03/31 06:58:21;;;;;;;13.03;7.10;;;;;;;10.22;100.00;95162.50;5093647;28;20207;-68
2023/03/31 07:00:48;;;;;;;17.30;6.73;;;;;;;10.28;100.00;95149.34;5093292;28;20214;-68
2023/03/31 07:03:17;;;;;;;15.23;6.60;;;;;;;10.34;100.00;95133.53;5093059;28;20226;-69
2023/03/31 07:05:48;;;;;;;10.60;5.90;;;;;;;10.34;100.00;95124.84;5092429;28;20667;-68
2023/03/31 07:08:16;;;;;;;18.30;5.73;;;;;;;10.43;100.00;95118.34;5093279;28;20207;-67
2023/03/31 07:10:45;;;;;;;13.10;5.43;;;;;;;10.55;100.00;95114.09;5093066;28;20341;-68
2023/03/31 07:13:11;;;;;;;12.70;5.90;;;;;;;10.51;100.00;95099.72;5092650;28;20280;-68
2023/03/31 07:15:38;;;;;;;15.47;6.60;;;;;;;10.52;100.00;95090.81;5092195;28;20203;-68
2023/03/31 07:18:05;;;;;;;17.03;7.03;;;;;;;10.50;100.00;95077.84;5093068;28;20207;-68
2023/03/31 07:20:33;;;;;;;14.33;5.83;;;;;;;10.58;100.00;95077.63;5092396;28;20203;-68
2023/03/31 07:22:59;;;;;;;13.00;5.10;;;;;;;10.52;100.00;95075.00;5079174;28;20227;-68
2023/03/31 07:25:26;;;;;;;12.67;5.93;;;;;;;10.52;100.00;95077.63;5079195;28;20207;-68
2023/03/31 07:27:52;;;;;;;10.33;5.33;;;;;;;10.54;100.00;95071.16;5078272;28;20687;-67
2023/03/31 07:30:20;;;;;;;12.97;5.30;;;;;;;10.57;100.00;95062.03;5078660;28;20230;-67
2023/03/31 07:32:48;;;;;;;15.33;5.77;;;;;;;10.71;100.00;95045.19;5079370;28;20758;-67
2023/03/31 07:35:15;;;;;;;11.73;5.53;;;;;;;10.68;100.00;95033.25;5078596;28;20577;-68
2023/03/31 07:37:45;;;;;;;13.60;5.47;;;;;;;10.80;100.00;95033.41;5079050;28;20691;-67
2023/03/31 07:40:15;;;;;;;12.43;5.47;;;;;;;10.88;100.00;95025.28;5079451;28;20219;-68
2023/03/31 07:42:42;;;;;;;14.90;5.87;;;;;;;10.90;100.00;95020.63;5076257;28;20950;-68
2023/03/31 07:45:10;;;;;;;16.97;5.67;;;;;;;10.93;100.00;95029.72;5077177;28;20215;-68
2023/03/31 07:47:37;;;;;;;11.87;4.97;;;;;;;10.82;100.00;95055.91;5078554;28;20687;-68
2023/03/31 07:50:04;;;;;;;17.00;6.80;;;;;;;10.68;100.00;95085.09;5078739;28;20228;-66
2023/03/31 07:52:30;;;;;;;13.77;5.97;;;;;;;10.49;100.00;95112.28;5077571;28;20235;-68
2023/03/31 07:54:58;;;;;;;14.23;4.83;;;;;;;10.52;100.00;95122.41;5077183;28;20580;-68
2023/03/31 07:57:24;;;;;;;11.37;5.97;;;;;;;10.49;100.00;95154.44;5079161;28;20207;-68
2023/03/31 07:59:51;;;;;;;10.97;5.50;;;;;;;10.38;100.00;95212.94;5077616;28;20208;-68
2023/03/31 08:02:18;;;;;;;10.17;4.33;;;;;;;10.24;100.00;95260.53;5078286;28;20220;-68
2023/03/31 08:04:46;;;;;;;8.30;3.07;;;;;;;10.16;100.00;95297.56;5077885;28;20208;-67
2023/03/31 08:07:16;;;;;;;9.40;2.90;;;;;;;10.14;100.00;95274.03;5077527;28;20208;-67
2023/03/31 08:09:44;;;;;;;6.97;3.77;;;;;;;10.19;100.00;95218.97;5077116;28;20238;-67
2023/03/31 08:12:14;;;;;;;3.50;2.50;;;;;;;10.35;100.00;95203.63;5077300;28;20232;-67
2023/03/31 08:14:40;;;;;;;6.97;3.83;;;;;;;10.34;100.00;95180.13;5076799;28;20242;-67
2023/03/31 08:17:06;;;;;;;8.33;4.40;;;;;;;10.56;100.00;95144.69;5077632;28;20217;-67
2023/03/31 08:19:33;;;;;;;10.70;4.13;;;;;;;10.47;100.00;95145.91;5078366;28;20294;-68
2023/03/31 08:21:59;;;;;;;8.13;4.13;;;;;;;10.40;100.00;95145.91;5077683;28;20220;-68
2023/03/31 08:24:26;;;;;;;7.70;3.37;;;;;;;10.44;100.00;95170.03;5076586;28;20215;-68
2023/03/31 08:26:52;;;;;;;10.80;2.90;;;;;;;10.54;100.00;95150.16;5077743;28;20211;-68
2023/03/31 08:29:20;;;;;;;6.73;2.80;;;;;;;10.87;100.00;95142.22;5077146;28;20204;-68
2023/03/31 08:31:47;;;;;;;6.57;2.80;;;;;;;11.02;100.00;95128.63;5077881;28;20610;-68
2023/03/31 08:34:14;;;;;;;4.77;2.40;;;;;;;11.14;100.00;95113.78;5075636;28;20234;-68
2023/03/31 08:36:41;;;;;;;4.70;2.20;;;;;;;11.14;100.00;95099.81;5077535;28;20200;-68
2023/03/31 08:39:08;;;;;;;5.27;2.07;;;;;;;11.04;100.00;95102.88;5076874;28;20835;-67
2023/03/31 08:41:44;;;;;;;3.90;1.53;;;;;;;11.28;100.00;95107.47;5076361;28;20785;-68
2023/03/31 08:44:16;;;;;;;7.43;2.13;;;;;;;11.34;100.00;95105.81;5076588;28;20683;-67
2023/03/31 08:46:44;;;;;;;6.67;1.63;;;;;;;11.49;100.00;95109.00;5077156;28;20227;-68
2023/03/31 08:49:16;;;;;;;4.00;1.80;;;;;;;11.67;100.00;95102.88;5077263;28;20671;-68
2023/03/31 08:51:47;;;;;;;3.63;2.10;;;;;;;11.56;100.00;95100.06;5077019;28;20315;-68
2023/03/31 08:54:18;;;;;;;2.40;1.10;;;;;;;11.59;100.00;95086.47;5076514;28;20218;-68
2023/03/31 08:56:49;;;;;;;2.50;1.53;;;;;;;11.83;100.00;95098.91;5077606;28;20223;-67
2023/03/31 08:59:21;;;;;;;1.80;1.23;;;;;;;11.92;100.00;95090.53;5076974;28;20204;-67
2023/03/31 09:01:53;;;;;;;8.83;3.93;;;;;;;11.97;100.00;95098.63;5077301;28;20215;-67
2023/03/31 09:04:29;;;;;;;3.17;1.47;;;;;;;12.19;100.00;95073.47;5076247;28;21349;-68
2023/03/31 09:07:04;;;;;;;1.93;1.30;;;;;;;12.25;100.00;95068.16;5076537;28;20195;-68
2023/03/31 09:09:42;;;;;;;2.37;1.40;;;;;;;12.39;97.74;95061.72;5076535;28;20204;-68
2023/03/31 09:12:14;;;;;;;1.53;1.10;;;;;;;12.80;96.11;95056.69;5077082;28;20224;-68
2023/03/31 09:14:45;;;;;;;5.10;1.70;;;;;;;12.85;93.39;95040.97;5075766;28;20223;-68
2023/03/31 09:17:21;;;;;;;5.68;1.58;;;;;;;13.49;94.92;95045.53;5076366;28;20207;-68
2023/03/31 09:19:52;;;;;;;1.85;0.90;;;;;;;13.41;86.38;95043.19;5076736;28;20207;-68
2023/03/31 09:22:23;;;;;;;1.27;1.00;;;;;;;13.35;88.04;95063.63;5076565;28;20223;-68
2023/03/31 09:24:56;;;;;;;2.20;1.00;;;;;;;13.39;88.88;95053.19;5075689;28;20203;-68
2023/03/31 09:27:27;;;;;;;2.17;1.00;;;;;;;13.01;87.51;95067.69;5076573;28;20215;-68
2023/03/31 09:29:58;;;;;;;1.70;0.90;;;;;;;13.11;87.24;95051.28;5076059;28;20207;-68
2023/03/31 09:32:29;;;;;;;1.43;1.00;;;;;;;13.45;90.05;95052.31;5076014;28;20688;-68
2023/03/31 09:35:00;;;;;;;2.63;1.20;;;;;;;13.64;88.10;95061.00;5075629;28;20200;-68
2023/03/31 09:37:32;;;;;;;0.50;0.50;;;;;;;13.72;84.83;95056.22;5076324;28;20286;-68
2023/03/31 09:40:00;;;;;;;0.73;0.73;;;;;;;13.67;82.40;95055.25;5076797;28;20545;-68
2023/03/31 09:42:27;;;;;;;2.10;1.20;;;;;;;13.97;85.23;95053.44;5075750;28;21183;-67
2023/03/31 09:44:54;;;;;;;2.40;1.60;;;;;;;14.26;83.44;95053.44;5074900;28;20208;-68
2023/03/31 09:47:29;;;;;;;2.90;1.33;;;;;;;14.19;80.22;95044.75;5075351;28;20235;-68
2023/03/31 09:49:55;;;;;;;3.38;1.30;;;;;;;14.18;82.37;95032.56;5076370;28;20272;-68
2023/03/31 09:52:29;;;;;;;3.05;1.00;;;;;;;14.19;79.00;95034.97;5075750;28;20707;-68
2023/03/31 09:54:58;;;;;;;1.00;0.90;;;;;;;14.32;81.16;95018.88;5075596;28;20203;-69
2023/03/31 09:57:27;;;;;;;2.83;0.65;;;;;;;14.42;79.78;95013.81;5075199;28;20979;-68
2023/03/31 10:00:04;;;;;;;2.33;1.00;;;;;;;14.73;78.24;95002.84;5075412;28;20211;-68
2023/03/31 10:02:39;;;;;;;3.20;0.90;;;;;;;14.74;76.73;94997.31;5075822;28;20230;-68
2023/03/31 10:05:07;;;;;;;3.35;1.05;;;;;;;14.80;75.41;94991.09;5075101;28;20602;-68
2023/03/31 10:07:35;;;;;;;1.20;0.73;;;;;;;14.80;74.33;94983.16;5075909;28;20207;-68
2023/03/31 10:10:02;;;;;;;3.10;0.80;;;;;;;14.98;72.60;94987.47;5076093;28;20212;-67
2023/03/31 10:12:30;;;;;;;1.23;0.90;;;;;;;15.11;71.71;94982.72;5075173;28;20228;-68
2023/03/31 10:15:16;;;;;;;1.58;0.80;;;;;;;15.34;74.15;94985.34;5075227;28;20195;-68
2023/03/31 10:17:45;;;;;;;0.95;0.70;;;;;;;15.22;72.34;94984.56;5075031;28;20428;-67
2023/03/31 10:20:25;;;;;;;0.85;0.50;;;;;;;15.17;67.79;94973.81;5075637;28;21385;-68
2023/03/31 10:22:51;;;;;;;0.70;0.70;;;;;;;15.21;65.20;94969.72;5075745;28;20280;-68
2023/03/31 10:25:21;;;;;;;1.38;0.95;;;;;;;15.51;65.94;94954.34;5074691;28;20208;-68
2023/03/31 10:27:52;;;;;;;1.10;0.85;;;;;;;15.33;65.55;94952.69;5075718;28;20207;-68
2023/03/31 10:30:23;;;;;;;3.83;0.80;;;;;;;15.55;64.71;94944.88;5075828;28;20227;-68
2023/03/31 10:32:51;;;;;;;1.02;1.00;;;;;;;15.37;61.57;94924.63;5075600;28;20234;-68
2023/03/31 10:35:24;;;;;;;0.50;0.50;;;;;;;15.43;60.63;94933.50;5074848;28;20207;-68
2023/03/31 10:37:55;;;;;;;0.60;0.50;;;;;;;15.43;59.21;94923.69;5075557;28;20215;-67
2023/03/31 10:40:25;;;;;;;1.42;0.70;;;;;;;15.57;60.27;94934.81;5075612;28;20207;-68
2023/03/31 10:43:01;;;;;;;1.48;0.80;;;;;;;15.63;56.97;94923.22;5075197;28;20711;-67
2023/03/31 10:45:30;;;;;;;3.25;0.90;;;;;;;15.66;57.41;94922.78;5075111;28;20195;-68
2023/03/31 10:48:00;;;;;;;0.50;0.50;;;;;;;15.83;58.10;94926.25;5075355;28;20222;-68
2023/03/31 10:50:29;;;;;;;1.75;0.70;;;;;;;15.81;57.91;94920.34;5074469;28;20215;-69
2023/03/31 10:53:02;;;;;;;0.95;0.45;;;;;;;15.84;55.42;94925.19;5075053;28;20301;-68
2023/03/31 10:55:36;;;;;;;2.05;0.55;;;;;;;15.97;54.40;94926.50;5074994;28;20664;-67
2023/03/31 10:58:14;;;;;;;1.25;0.50;;;;;;;15.88;54.01;94908.53;5078288;28;20745;-69
2023/03/31 11:00:58;;;;;;;1.13;0.68;;;;;;;16.11;54.13;94895.09;5079560;28;20200;-68
2023/03/31 11:04:06;;;;;;;1.00;0.60;;;;;;;15.84;53.10;94888.00;5078500;28;20234;-68
2023/03/31 11:06:49;;;;;;;0.93;0.35;;;;;;;15.79;52.05;94887.94;5048948;28;20215;-69
2023/03/31 11:09:36;;;;;;;8.95;0.88;;;;;;;15.95;52.20;94885.28;5079380;28;20299;-68
2023/03/31 11:12:12;;;;;;;2.45;0.65;;;;;;;15.86;51.97;94871.59;5077049;28;20228;-70
2023/03/31 11:14:51;;;;;;;0.80;0.60;;;;;;;16.20;52.10;94878.47;5077672;28;20207;-69
2023/03/31 11:17:28;;;;;;;0.47;0.47;;;;;;;16.36;51.58;94880.34;5079060;28;20848;-69
2023/03/31 11:20:09;;;;;;;2.78;0.88;;;;;;;16.61;49.68;94864.72;5077792;28;20203;-68
2023/03/31 11:22:45;;;;;;;0.80;0.40;;;;;;;16.56;50.11;94875.31;5077501;28;20795;-69
2023/03/31 11:25:20;;;;;;;1.95;0.50;;;;;;;16.45;47.31;94852.28;5078648;28;20303;-70
2023/03/31 11:28:02;;;;;;;3.55;0.95;;;;;;;16.58;47.53;94867.88;5078215;28;20203;-69
2023/03/31 11:30:33;;;;;;;3.50;0.63;;;;;;;16.51;47.47;94859.28;5077812;28;20209;-69
2023/03/31 11:33:21;;;;;;;3.35;1.15;;;;;;;16.70;46.97;94848.09;5078453;28;20231;-68
2023/03/31 11:36:04;;;;;;;1.55;0.52;;;;;;;16.67;48.10;94880.50;5077877;28;20207;-69
2023/03/31 11:38:52;;;;;;;1.85;0.70;;;;;;;16.53;48.26;94863.31;5078784;28;20208;-69
2023/03/31 11:41:20;;;;;;;1.60;0.80;;;;;;;16.35;49.07;94854.00;5077893;28;20473;-69
2023/03/31 11:43:49;;;;;;;2.90;0.80;;;;;;;16.53;48.85;94867.81;5076923;28;20309;-70
2023/03/31 11:46:21;;;;;;;2.30;0.88;;;;;;;16.41;47.48;94837.06;5078198;28;20215;-69
2023/03/31 11:48:56;;;;;;;3.58;1.33;;;;;;;16.51;48.13;94848.66;5078190;28;20206;-69
2023/03/31 11:51:28;;;;;;;1.83;0.70;;;;;;;16.45;46.38;94835.53;5077665;28;20227;-69
2023/03/31 11:53:58;;;;;;;1.30;0.50;;;;;;;16.32;45.08;94857.13;5077481;28;20211;-70
2023/03/31 11:56:36;;;;;;;1.27;0.60;;;;;;;16.41;45.22;94848.50;5078160;28;20215;-69
2023/03/31 11:59:03;;;;;;;1.13;0.40;;;;;;;16.15;45.53;94830.59;5078245;28;20199;-69
2023/03/31 12:01:40;;;;;;;1.67;0.60;;;;;;;16.37;46.57;94852.72;5078109;28;20203;-68
2023/03/31 12:04:16;;;;;;;0.90;0.52;;;;;;;16.17;46.47;94836.44;5077323;28;20211;-69
2023/03/31 12:06:46;;;;;;;2.17;1.10;;;;;;;16.34;46.44;94831.13;5077922;28;20204;-69
2023/03/31 12:09:19;;;;;;;1.27;0.60;;;;;;;16.15;44.93;94813.81;5077211;28;20200;-69
2023/03/31 12:11:52;;;;;;;1.25;0.52;;;;;;;16.26;44.78;94821.72;5077372;28;20241;-69
2023/03/31 12:14:29;;;;;;;0.57;0.52;;;;;;;16.29;44.48;94831.84;5076599;28;20617;-69
2023/03/31 12:17:00;;;;;;;0.57;0.55;;;;;;;16.24;45.25;94828.28;5077902;28;20203;-69
2023/03/31 12:19:32;;;;;;;0.95;0.50;;;;;;;16.09;46.03;94881.25;5077257;28;20199;-67
2023/03/31 12:22:07;;;;;;;0.20;0.20;;;;;;;13.99;59.70;94906.50;5076944;28;20220;-69
2023/03/31 12:24:34;;;;;;;0.30;0.30;;;;;;;12.86;64.90;94966.75;5077404;28;20230;-68
2023/03/31 12:27:11;;;;;;;1.43;0.93;;;;;;;12.74;64.95;94980.09;5076849;28;20211;-69
2023/03/31 12:29:41;;;;;;;0.30;0.30;;;;;;;12.55;67.63;94973.19;5076747;28;20230;-68
2023/03/31 12:32:14;;;;;;;1.30;0.77;;;;;;;12.49;69.37;94956.38;5076939;28;20255;-69
2023/03/31 12:34:47;;;;;;;0.30;0.30;;;;;;;12.36;70.89;94967.09;5076466;28;20749;-68
2023/03/31 12:37:55;;;;;;;1.00;0.50;;;;;;;12.64;70.45;94956.84;5076856;28;20660;-68
2023/03/31 12:40:33;;;;;;;0.30;0.30;;;;;;;12.87;70.46;94967.59;5058958;28;20203;-67
2023/03/31 12:43:18;;;;;;;0.40;0.40;;;;;;;12.66;68.46;94973.25;5076898;28;20566;-68
2023/03/31 12:45:53;;;;;;;0.30;0.30;;;;;;;12.61;68.81;94962.53;5075869;28;20214;-68
2023/03/31 12:48:36;;;;;;;0.50;0.50;;;;;;;12.76;67.14;94942.63;5077255;28;20203;-69
2023/03/31 12:51:27;;;;;;;0.30;0.30;;;;;;;13.16;66.30;94929.78;5077021;28;20208;-69
2023/03/31 12:54:09;;;;;;;1.50;0.50;;;;;;;13.59;65.55;94937.31;5076107;28;20261;-68
2023/03/31 12:57:04;;;;;;;0.30;0.30;;;;;;;13.80;63.87;94931.47;5077073;28;21026;-68
2023/03/31 12:59:33;;;;;;;11.80;0.77;;;;;;;13.98;63.33;94926.06;5076215;28;20261;-69
2023/03/31 13:02:22;;;;;;;0.40;0.40;;;;;;;14.07;61.47;94917.56;5076550;28;20216;-68
2023/03/31 13:04:49;;;;;;;0.40;0.40;;;;;;;14.04;63.08;94914.59;5075570;28;20200;-69
2023/03/31 13:07:40;;;;;;;2.17;0.60;;;;;;;14.40;63.32;94914.38;5076671;28;20642;-69
2023/03/31 13:10:26;;;;;;;1.15;0.57;;;;;;;14.51;59.21;94897.63;5075823;28;20243;-68
2023/03/31 13:13:01;;;;;;;3.63;0.45;;;;;;;14.52;59.06;94889.44;5076207;28;20228;-68
2023/03/31 13:15:29;;;;;;;1.48;0.80;;;;;;;14.71;60.00;94891.72;5075296;28;20659;-69
2023/03/31 13:17:58;;;;;;;0.93;0.45;;;;;;;14.73;56.73;94889.63;5076413;28;20207;-69
2023/03/31 13:20:31;;;;;;;1.88;0.88;;;;;;;14.77;57.30;94871.41;5075857;28;20209;-68
2023/03/31 13:23:03;;;;;;;1.48;0.60;;;;;;;14.77;55.94;94869.56;5076910;28;20812;-69
2023/03/31 13:25:49;;;;;;;0.30;0.30;;;;;;;15.00;56.45;94871.34;5076122;28;20208;-68
2023/03/31 13:28:38;;;;;;;1.55;0.60;;;;;;;15.35;56.17;94870.16;5075504;28;20257;-69
2023/03/31 13:31:05;;;;;;;1.77;0.50;;;;;;;14.76;54.62;94878.56;5077239;28;20277;-69
2023/03/31 13:33:36;;;;;;;2.15;0.90;;;;;;;14.77;54.81;94874.06;5074695;28;20234;-68
2023/03/31 13:36:38;;;;;;;2.58;0.80;;;;;;;14.75;54.58;94866.34;5076296;28;20212;-68
2023/03/31 13:39:24;;;;;;;1.10;0.60;;;;;;;14.94;55.66;94864.31;5056480;28;20237;-70
2023/03/31 13:42:03;;;;;;;0.60;0.40;;;;;;;14.77;54.86;94853.66;5076234;28;20257;-69
2023/03/31 13:45:03;;;;;;;0.80;0.55;;;;;;;14.57;54.61;94841.03;5075407;28;20302;-68
2023/03/31 13:47:49;;;;;;;3.03;0.70;;;;;;;14.64;54.16;94863.75;5075894;28;20560;-69
2023/03/31 13:50:39;;;;;;;0.68;0.50;;;;;;;14.49;53.44;94854.66;5076028;28;20227;-69
2023/03/31 13:53:25;;;;;;;0.43;0.43;;;;;;;14.51;54.47;94871.13;5075774;28;20711;-69
2023/03/31 13:56:09;;;;;;;1.83;0.60;;;;;;;14.55;55.39;94869.63;5075225;28;20207;-68
2023/03/31 13:58:57;;;;;;;2.00;0.75;;;;;;;14.81;55.14;94881.31;5075479;28;20223;-69
2023/03/31 14:01:51;;;;;;;4.72;0.88;;;;;;;14.40;56.61;94883.38;5075869;28;20211;-69
2023/03/31 14:04:40;;;;;;;1.00;0.40;;;;;;;14.26;56.00;94874.03;5074926;28;20203;-69
2023/03/31 14:07:09;;;;;;;0.95;0.60;;;;;;;14.22;57.07;94869.47;5075366;28;20211;-69
2023/03/31 14:09:45;;;;;;;2.08;0.40;;;;;;;14.30;57.80;94871.75;5074324;28;20695;-69
2023/03/31 14:12:29;;;;;;;5.10;0.77;;;;;;;14.28;56.92;94868.50;5075249;28;20242;-68
2023/03/31 14:14:57;;;;;;;1.40;0.60;;;;;;;14.22;57.18;94878.19;5073972;28;20302;-69
2023/03/31 14:17:28;;;;;;;0.40;0.40;;;;;;;14.43;56.50;94874.94;5075344;28;20233;-69
2023/03/31 14:20:20;;;;;;;0.43;0.43;;;;;;;14.54;55.56;94897.19;5075491;28;20207;-68
2023/03/31 14:22:51;;;;;;;1.55;0.60;;;;;;;14.44;55.71;94881.06;5075362;28;20235;-69
2023/03/31 14:25:28;;;;;;;4.93;0.75;;;;;;;14.73;55.13;94889.63;5074904;28;20199;-68
2023/03/31 14:28:04;;;;;;;5.20;1.05;;;;;;;14.71;55.27;94891.72;5075407;28;20221;-68
2023/03/31 14:30:42;;;;;;;2.30;0.55;;;;;;;14.83;54.84;94875.78;5075226;28;20210;-69
2023/03/31 14:33:24;;;;;;;2.85;0.60;;;;;;;15.32;54.80;94860.03;5078607;28;20231;-72
2023/03/31 14:35:57;;;;;;;1.70;0.63;;;;;;;15.43;54.59;94864.50;5078286;28;20744;-69
2023/03/31 14:38:27;;;;;;;0.68;0.50;;;;;;;14.71;55.88;94859.91;5080520;28;20230;-69
2023/03/31 14:40:59;;;;;;;1.85;0.70;;;;;;;14.74;54.95;94856.00;5079275;28;20668;-71
2023/03/31 14:43:30;;;;;;;1.00;0.47;;;;;;;14.36;56.28;94854.94;5079487;28;20281;-71
2023/03/31 14:46:02;;;;;;;4.90;1.00;;;;;;;14.38;55.90;94856.28;5079406;28;20579;-69
2023/03/31 14:48:29;;;;;;;2.25;0.70;;;;;;;14.26;55.37;94854.72;5078734;28;20207;-69
2023/03/31 14:50:58;;;;;;;0.70;0.70;;;;;;;14.08;54.91;94858.28;5079071;28;20203;-68
2023/03/31 14:53:27;;;;;;;2.28;0.63;;;;;;;13.92;55.91;94865.28;5079211;28;20678;-68
2023/03/31 14:55:59;;;;;;;3.03;0.60;;;;;;;13.92;55.42;94857.34;5079652;28;20199;-69
2023/03/31 14:58:29;;;;;;;1.85;0.88;;;;;;;13.82;56.23;94865.84;5079832;28;20269;-68
2023/03/31 15:00:56;;;;;;;2.72;0.60;;;;;;;13.62;56.90;94906.91;5079705;28;20200;-69
2023/03/31 15:03:26;;;;;;;8.43;0.70;;;;;;;13.24;61.08;94929.44;5080033;28;20227;-69
2023/03/31 15:05:57;;;;;;;2.05;0.88;;;;;;;12.80;66.85;94950.94;5078400;28;20628;-68
2023/03/31 15:08:24;;;;;;;0.32;0.32;;;;;;;12.43;71.41;94933.47;5077210;28;20795;-68
2023/03/31 15:10:55;;;;;;;3.27;0.90;;;;;;;12.43;73.18;94928.19;5078582;28;20219;-68
2023/03/31 15:13:34;;;;;;;0.30;0.30;;;;;;;12.62;73.79;94926.38;5077730;28;20231;-68
2023/03/31 15:16:19;;;;;;;3.20;0.80;;;;;;;12.66;71.33;94922.25;5077715;28;20573;-68
2023/03/31 15:18:47;;;;;;;0.50;0.50;;;;;;;12.67;72.12;94892.16;5077966;28;20204;-68
2023/03/31 15:21:21;;;;;;;0.93;0.50;;;;;;;12.47;70.66;94900.28;5078358;28;20207;-68
2023/03/31 15:23:52;;;;;;;1.10;0.50;;;;;;;12.40;70.75;94883.72;5077005;28;20230;-68
2023/03/31 15:26:21;;;;;;;2.00;0.60;;;;;;;12.28;71.66;94888.13;5078470;28;20200;-67
2023/03/31 15:28:53;;;;;;;0.60;0.50;;;;;;;12.28;72.32;94890.78;5077463;28;20747;-68
2023/03/31 15:31:20;;;;;;;0.30;0.30;;;;;;;12.06;71.76;94890.59;5078041;28;20307;-69
2023/03/31 15:33:48;;;;;;;1.23;0.50;;;;;;;12.08;71.26;94891.19;5077397;28;20569;-68
2023/03/31 15:36:15;;;;;;;3.63;0.90;;;;;;;12.08;72.36;94901.75;5077760;28;20672;-68
2023/03/31 15:38:43;;;;;;;3.53;0.83;;;;;;;12.08;72.84;94901.75;5078962;28;20204;-69
2023/03/31 15:41:13;;;;;;;0.47;0.47;;;;;;;12.11;72.49;94919.81;5079888;28;20276;-68
2023/03/31 15:43:46;;;;;;;1.03;0.40;;;;;;;12.10;74.00;94912.91;5077341;28;20566;-68
2023/03/31 15:46:19;;;;;;;1.30;0.80;;;;;;;11.81;75.95;94940.78;5078154;28;20207;-67
2023/03/31 15:48:52;;;;;;;2.00;0.63;;;;;;;11.63;79.86;94892.41;5077875;28;20249;-68
2023/03/31 15:51:25;;;;;;;1.23;0.40;;;;;;;11.37;79.27;94891.78;5077515;28;20214;-68
2023/03/31 15:53:53;;;;;;;16.87;0.80;;;;;;;11.35;81.65;94893.81;5076765;28;20228;-68
2023/03/31 15:56:29;;;;;;;1.87;0.73;;;;;;;11.41;82.64;94891.13;5078069;28;20195;-68
2023/03/31 15:59:00;;;;;;;1.80;0.70;;;;;;;11.33;82.20;94901.13;5078305;28;20213;-68
2023/03/31 16:01:31;;;;;;;0.57;0.40;;;;;;;11.32;84.02;94883.72;5077521;28;20211;-68
2023/03/31 16:04:01;;;;;;;1.90;0.67;;;;;;;11.31;85.32;94877.59;5077274;28;20265;-69
2023/03/31 16:06:42;;;;;;;1.57;0.67;;;;;;;11.21;85.39;94877.25;5078512;28;20200;-68
2023/03/31 16:09:10;;;;;;;2.97;0.90;;;;;;;11.15;86.08;94883.41;5078535;28;20207;-68
2023/03/31 16:11:42;;;;;;;1.53;0.80;;;;;;;11.17;86.71;94884.00;5078599;28;20288;-68
2023/03/31 16:14:15;;;;;;;1.73;0.70;;;;;;;11.16;85.88;94884.22;5077774;28;20227;-68
2023/03/31 16:16:47;;;;;;;2.03;1.00;;;;;;;11.18;85.31;94876.91;5078212;28;20208;-68
2023/03/31 16:19:16;;;;;;;3.13;0.93;;;;;;;11.42;84.33;94881.38;5077744;28;20245;-68
2023/03/31 16:21:48;;;;;;;1.77;1.00;;;;;;;11.47;83.04;94879.72;5077615;28;20951;-68
2023/03/31 16:24:16;;;;;;;0.50;0.50;;;;;;;11.49;80.90;94864.47;5077078;28;20582;-68
2023/03/31 16:26:43;;;;;;;2.97;0.70;;;;;;;12.12;80.08;94861.50;5077471;28;20562;-69
2023/03/31 16:29:09;;;;;;;0.73;0.53;;;;;;;14.01;70.05;94857.56;5075600;28;20203;-69
2023/03/31 16:31:38;;;;;;;0.98;0.45;;;;;;;15.09;65.27;94878.69;5077837;28;20235;-69
2023/03/31 16:34:06;;;;;;;5.18;0.90;;;;;;;14.71;65.64;94875.81;5076471;28;20276;-69
2023/03/31 16:36:34;;;;;;;1.67;0.85;;;;;;;14.20;67.30;94874.16;5077748;28;20207;-69
2023/03/31 16:39:03;;;;;;;0.50;0.50;;;;;;;13.22;70.74;94868.03;5077847;28;20207;-69
2023/03/31 16:41:31;;;;;;;1.50;0.70;;;;;;;12.23;75.76;94884.50;5077712;28;20254;-67
2023/03/31 16:43:58;;;;;;;0.50;0.50;;;;;;;11.76;78.18;94884.38;5077095;28;20204;-68
2023/03/31 16:46:25;;;;;;;1.60;0.50;;;;;;;11.52;80.07;94885.22;5077731;28;20200;-68
2023/03/31 16:48:52;;;;;;;1.73;1.00;;;;;;;11.18;81.98;94888.25;5077721;28;20552;-68
2023/03/31 16:51:19;;;;;;;1.27;0.77;;;;;;;11.16;83.54;94885.03;5077407;28;20204;-68
2023/03/31 16:53:47;;;;;;;1.90;0.60;;;;;;;11.05;84.59;94888.34;5075636;28;20239;-68
2023/03/31 16:56:14;;;;;;;4.13;0.87;;;;;;;10.98;86.16;94892.84;5077051;28;20610;-68
2023/03/31 16:58:41;;;;;;;2.77;0.80;;;;;;;10.95;87.60;94893.25;5077659;28;20199;-67
2023/03/31 17:01:08;;;;;;;2.03;0.83;;;;;;;10.88;88.27;94891.66;5077809;28;20207;-69
2023/03/31 17:03:37;;;;;;;1.40;0.90;;;;;;;10.76;87.44;94897.84;5076543;28;20605;-68
2023/03/31 17:06:07;;;;;;;2.40;0.63;;;;;;;10.85;86.27;94902.66;5076021;28;20204;-68
2023/03/31 17:08:33;;;;;;;2.60;0.67;;;;;;;10.68;85.36;94880.44;5077716;28;20200;-69
2023/03/31 17:11:03;;;;;;;2.17;1.00;;;;;;;10.67;86.42;94883.28;5077510;28;20953;-68
2023/03/31 17:13:31;;;;;;;0.70;0.70;;;;;;;10.62;86.04;94880.47;5076467;28;20235;-68
2023/03/31 17:15:58;;;;;;;1.20;0.90;;;;;;;10.56;86.72;94892.63;5077103;28;20196;-69
2023/03/31 17:18:24;;;;;;;2.10;0.90;;;;;;;10.53;87.18;94903.59;5077435;28;20200;-69
2023/03/31 17:20:52;;;;;;;2.60;0.70;;;;;;;10.51;87.32;94899.56;5076987;28;20214;-67
2023/03/31 17:23:19;;;;;;;2.20;1.10;;;;;;;10.47;88.57;94903.63;5074262;28;20259;-69
2023/03/31 17:25:48;;;;;;;1.87;0.80;;;;;;;10.51;87.75;94899.56;5075285;28;20207;-68
2023/03/31 17:28:17;;;;;;;0.73;0.60;;;;;;;10.46;88.56;94896.72;5075332;28;20208;-69
2023/03/31 17:30:46;;;;;;;0.83;0.60;;;;;;;10.37;89.31;94916.41;5075697;28;20208;-67
2023/03/31 17:33:14;;;;;;;6.07;1.03;;;;;;;10.37;89.63;94930.41;5075272;28;20437;-68
2023/03/31 17:35:40;;;;;;;7.07;2.30;;;;;;;10.45;89.36;94924.06;5072072;28;20192;-69
2023/03/31 17:38:08;;;;;;;8.20;1.13;;;;;;;10.26;90.41;94926.78;5074968;28;20210;-69
2023/03/31 17:40:35;;;;;;;4.57;1.83;;;;;;;10.34;90.24;94932.63;5076341;28;20207;-68
2023/03/31 17:43:02;;;;;;;4.07;1.20;;;;;;;10.35;90.68;94940.31;5075060;28;20216;-69
2023/03/31 17:45:31;;;;;;;5.20;1.20;;;;;;;10.41;90.20;94942.13;5074455;28;20212;-68
2023/03/31 17:47:58;;;;;;;7.23;1.87;;;;;;;10.23;90.49;94943.78;5075284;28;20735;-68
2023/03/31 17:50:25;;;;;;;3.33;2.17;;;;;;;10.30;89.05;94955.13;5075554;28;20211;-68
2023/03/31 17:52:52;;;;;;;6.93;3.07;;;;;;;10.38;88.78;94954.91;5075864;28;20219;-68
2023/03/31 17:55:19;;;;;;;7.57;2.27;;;;;;;10.37;87.77;94963.81;5074353;28;20214;-68
2023/03/31 17:57:45;;;;;;;6.27;1.77;;;;;;;10.49;87.72;94960.34;5075086;28;20204;-68
2023/03/31 18:00:15;;;;;;;20.30;6.40;;;;;;;10.48;87.72;94971.88;5075090;28;20210;-68
2023/03/31 18:02:43;;;;;;;5.23;0.90;;;;;;;10.54;87.32;94970.28;5075319;28;20224;-68